createdAt,value
2019-04-16T00:01:06.832Z,5.27
2019-04-16T00:03:36.068Z,4.50
2019-04-16T00:06:10.437Z,6.00
2019-04-16T00:08:46.952Z,4.67
2019-04-16T00:11:25.193Z,5.13
2019-04-16T00:14:02.962Z,4.13
2019-04-16T00:16:30.041Z,4.70
2019-04-16T00:19:01.063Z,4.67
2019-04-16T00:21:48.992Z,4.37
2019-04-16T00:24:30.869Z,4.47
2019-04-16T00:26:59.888Z,5.07
2019-04-16T00:29:32.703Z,5.17
2019-04-16T00:32:00.670Z,5.03
2019-04-16T00:34:28.029Z,4.20
2019-04-16T00:36:55.686Z,4.70
2019-04-16T00:39:24.836Z,5.33
2019-04-16T00:41:52.702Z,4.50
2019-04-16T00:44:20.071Z,4.87
2019-04-16T00:46:47.615Z,5.37
2019-04-16T00:49:15.230Z,4.73
2019-04-16T00:51:42.765Z,4.83
2019-04-16T00:54:12.820Z,5.50
2019-04-16T00:56:40.534Z,4.10
2019-04-16T00:59:11.660Z,4.97
2019-04-16T01:01:39.527Z,5.63
2019-04-16T01:04:07.132Z,4.83
2019-04-16T01:06:34.811Z,4.80
2019-04-16T01:09:03.900Z,5.17
2019-04-16T01:11:33.173Z,4.80
2019-04-16T01:14:00.928Z,4.70
2019-04-16T01:16:30.281Z,5.10
2019-04-16T01:18:57.674Z,4.73
2019-04-16T01:21:25.508Z,4.93
2019-04-16T01:23:53.228Z,5.23
2019-04-16T01:26:20.636Z,4.60
2019-04-16T01:29:03.699Z,4.70
2019-04-16T01:31:45.038Z,4.60
2019-04-16T01:34:32.720Z,4.43
2019-04-16T01:37:12.546Z,4.83
2019-04-16T01:39:40.803Z,4.37
2019-04-16T01:42:10.471Z,4.50
2019-04-16T01:44:37.963Z,4.47
2019-04-16T01:47:05.597Z,4.53
2019-04-16T01:49:32.950Z,5.23
2019-04-16T01:52:00.367Z,4.87
2019-04-16T01:54:34.324Z,4.80
2019-04-16T01:57:08.500Z,4.60
2019-04-16T01:59:36.468Z,4.70
2019-04-16T02:02:04.290Z,4.93
2019-04-16T02:04:32.661Z,4.67
2019-04-16T02:07:00.088Z,5.07
2019-04-16T02:09:27.456Z,4.80
2019-04-16T02:11:55.050Z,5.20
2019-04-16T02:14:22.615Z,4.43
2019-04-16T02:16:55.685Z,4.17
2019-04-16T02:19:20.824Z,4.53
2019-04-16T02:21:48.349Z,6.27
2019-04-16T02:24:18.537Z,4.93
2019-04-16T02:26:45.312Z,4.67
2019-04-16T02:29:13.303Z,4.67
2019-04-16T02:31:40.925Z,4.80
2019-04-16T02:34:08.758Z,5.17
2019-04-16T02:36:36.254Z,4.70
2019-04-16T02:39:07.690Z,5.30
2019-04-16T02:41:35.777Z,4.43
2019-04-16T02:44:04.726Z,4.13
2019-04-16T02:46:39.616Z,4.83
2019-04-16T02:49:07.134Z,4.87
2019-04-16T02:51:55.389Z,4.43
2019-04-16T02:54:45.664Z,5.30
2019-04-16T02:57:38.775Z,4.80
2019-04-16T03:00:18.540Z,5.17
2019-04-16T03:02:54.616Z,4.57
2019-04-16T03:05:26.561Z,5.63
2019-04-16T03:07:55.630Z,4.33
2019-04-16T03:10:24.081Z,4.47
2019-04-16T03:12:52.901Z,4.23
2019-04-16T03:15:49.106Z,4.10
2019-04-16T03:18:18.705Z,5.50
2019-04-16T03:20:46.152Z,5.03
2019-04-16T03:23:13.597Z,6.53
2019-04-16T03:25:44.132Z,4.50
2019-04-16T03:28:11.042Z,4.47
2019-04-16T03:30:42.175Z,4.87
2019-04-16T03:33:12.711Z,4.70
2019-04-16T03:35:37.200Z,5.37
2019-04-16T03:38:06.187Z,5.67
2019-04-16T03:40:33.808Z,4.93
2019-04-16T03:43:04.011Z,4.87
2019-04-16T03:45:30.690Z,5.03
2019-04-16T03:47:58.128Z,4.30
2019-04-16T03:50:28.279Z,5.77
2019-04-16T03:52:55.237Z,6.03
2019-04-16T03:55:26.309Z,4.43
2019-04-16T03:57:52.572Z,5.20
2019-04-16T04:00:20.760Z,5.07
2019-04-16T04:02:48.539Z,4.97
2019-04-16T04:05:15.956Z,5.53
2019-04-16T04:07:44.118Z,5.53
2019-04-16T04:10:13.904Z,4.47
2019-04-16T04:12:51.434Z,4.63
2019-04-16T04:15:19.295Z,4.57
2019-04-16T04:17:47.297Z,5.23
2019-04-16T04:20:18.136Z,4.57
2019-04-16T04:22:44.946Z,5.03
2019-04-16T04:25:18.134Z,4.00
2019-04-16T04:27:46.791Z,5.23
2019-04-16T04:30:16.903Z,4.40
2019-04-16T04:32:47.367Z,4.87
2019-04-16T04:35:13.696Z,4.80
2019-04-16T04:37:41.150Z,4.93
2019-04-16T04:40:12.953Z,4.80
2019-04-16T04:42:41.166Z,4.40
2019-04-16T04:45:10.572Z,4.43
2019-04-16T04:47:38.628Z,4.23
2019-04-16T04:50:07.206Z,4.80
2019-04-16T04:52:34.888Z,4.33
2019-04-16T04:55:02.623Z,4.57
2019-04-16T04:57:31.135Z,5.00
2019-04-16T04:59:59.378Z,4.47
2019-04-16T05:02:27.043Z,4.60
2019-04-16T05:05:16.419Z,4.97
2019-04-16T05:07:43.892Z,4.43
2019-04-16T05:10:12.093Z,4.30
2019-04-16T05:12:39.488Z,3.83
2019-04-16T05:15:07.800Z,4.30
2019-04-16T05:17:35.453Z,5.37
2019-04-16T05:20:05.443Z,4.73
2019-04-16T05:22:33.262Z,6.60
2019-04-16T05:25:02.341Z,5.00
2019-04-16T05:27:29.881Z,4.90
2019-04-16T05:29:57.900Z,5.20
2019-04-16T05:32:25.976Z,5.37
2019-04-16T05:34:53.858Z,4.97
2019-04-16T05:37:21.384Z,4.93
2019-04-16T05:39:48.962Z,4.73
2019-04-16T05:42:16.359Z,4.67
2019-04-16T05:44:44.137Z,5.17
2019-04-16T05:47:16.870Z,5.30
2019-04-16T05:49:41.294Z,5.40
2019-04-16T05:52:08.694Z,5.00
2019-04-16T05:55:01.220Z,5.63
2019-04-16T05:57:30.525Z,5.10
2019-04-16T05:59:58.004Z,4.77
2019-04-16T06:02:36.850Z,5.00
2019-04-16T06:05:04.932Z,5.10
2019-04-16T06:07:32.342Z,5.20
2019-04-16T06:09:59.936Z,5.67
2019-04-16T06:12:39.602Z,5.10
2019-04-16T06:15:26.438Z,5.00
2019-04-16T06:18:37.069Z,4.90
2019-04-16T06:21:22.608Z,6.13
2019-04-16T06:24:03.054Z,5.50
2019-04-16T06:26:44.502Z,5.40
2019-04-16T06:29:20.608Z,5.17
2019-04-16T06:31:58.826Z,5.87
2019-04-16T06:34:45.910Z,5.70
2019-04-16T06:37:21.595Z,4.87
2019-04-16T06:40:04.521Z,5.53
2019-04-16T06:42:38.368Z,5.10
2019-04-16T06:45:15.789Z,6.03
2019-04-16T06:48:14.821Z,5.43
2019-04-16T06:51:20.179Z,5.57
2019-04-16T06:54:19.219Z,5.63
2019-04-16T06:56:58.285Z,4.90
2019-04-16T06:59:31.835Z,5.20
2019-04-16T07:02:28.053Z,5.50
2019-04-16T07:05:10.160Z,5.80
2019-04-16T07:07:56.027Z,6.00
2019-04-16T07:10:28.641Z,5.80
2019-04-16T07:12:56.155Z,5.83
2019-04-16T07:15:27.858Z,6.70
2019-04-16T07:17:53.424Z,5.63
2019-04-16T07:20:20.948Z,5.93
2019-04-16T07:22:52.737Z,7.47
2019-04-16T07:25:18.573Z,6.17
2019-04-16T07:27:58.045Z,5.93
2019-04-16T07:30:35.519Z,6.13
2019-04-16T07:33:12.379Z,5.17
2019-04-16T07:36:08.341Z,6.73
2019-04-16T07:38:59.503Z,5.33
2019-04-16T07:41:47.350Z,5.60
2019-04-16T07:44:20.146Z,5.47
2019-04-16T07:46:57.602Z,5.83
2019-04-16T07:49:47.782Z,5.83
2019-04-16T07:52:21.229Z,5.67
2019-04-16T07:55:06.989Z,5.93
2019-04-16T07:57:34.544Z,6.17
2019-04-16T08:00:08.210Z,6.70
2019-04-16T08:02:32.506Z,6.17
2019-04-16T08:04:59.965Z,6.73
2019-04-16T08:07:27.762Z,7.03
2019-04-16T08:09:55.183Z,7.00
2019-04-16T08:12:30.429Z,7.33
2019-04-16T08:14:51.906Z,6.37
2019-04-16T08:17:19.791Z,6.90
2019-04-16T08:19:49.059Z,8.00
2019-04-16T08:22:16.728Z,7.37
2019-04-16T08:24:49.658Z,7.00
2019-04-16T08:27:19.042Z,7.33
2019-04-16T08:29:46.360Z,7.33
2019-04-16T08:32:15.981Z,7.00
2019-04-16T08:34:43.966Z,7.57
2019-04-16T08:37:12.505Z,8.10
2019-04-16T08:39:40.575Z,8.70
2019-04-16T08:42:08.215Z,8.50
2019-04-16T08:44:36.471Z,7.87
2019-04-16T08:47:04.000Z,7.83
2019-04-16T08:49:31.497Z,8.03
2019-04-16T08:51:59.241Z,7.77
2019-04-16T08:54:26.753Z,7.70
2019-04-16T08:56:54.201Z,8.63
2019-04-16T08:59:21.600Z,8.47
2019-04-16T09:02:08.754Z,9.03
2019-04-16T09:04:36.175Z,9.03
2019-04-16T09:07:11.123Z,9.00
2019-04-16T09:09:57.131Z,8.80
2019-04-16T09:12:22.830Z,8.30
2019-04-16T09:14:55.987Z,8.30
2019-04-16T09:17:23.806Z,8.47
2019-04-16T09:20:08.565Z,8.53
2019-04-16T09:22:48.096Z,7.73
2019-04-16T09:25:14.234Z,8.37
2019-04-16T09:27:44.286Z,9.30
2019-04-16T09:30:42.393Z,8.70
2019-04-16T09:33:24.382Z,8.30
2019-04-16T09:36:11.487Z,7.97
2019-04-16T09:38:47.254Z,8.03
2019-04-16T09:41:24.916Z,9.00
2019-04-16T09:43:57.170Z,9.40
2019-04-16T09:46:49.170Z,8.57
2019-04-16T09:48:53.008Z,8.67
2019-04-16T09:51:21.597Z,8.87
2019-04-16T09:53:49.238Z,9.57
2019-04-16T09:56:29.021Z,8.83
2019-04-16T09:59:05.999Z,8.00
2019-04-16T10:01:42.162Z,8.90
2019-04-16T10:04:12.027Z,8.73
2019-04-16T10:06:42.560Z,9.17
2019-04-16T10:09:10.290Z,8.47
2019-04-16T10:11:37.818Z,8.23
2019-04-16T10:14:05.822Z,7.63
2019-04-16T10:16:33.529Z,7.97
2019-04-16T10:19:01.152Z,8.67
2019-04-16T10:21:29.381Z,7.43
2019-04-16T10:24:29.246Z,7.50
2019-04-16T10:26:59.920Z,8.03
2019-04-16T10:29:27.325Z,5.83
2019-04-16T10:31:55.132Z,6.17
2019-04-16T10:34:22.730Z,5.87
2019-04-16T10:36:50.410Z,5.00
2019-04-16T10:39:36.326Z,4.43
2019-04-16T10:42:22.575Z,4.53
2019-04-16T10:45:11.965Z,5.40
2019-04-16T10:48:14.185Z,5.07
2019-04-16T10:50:59.787Z,5.43
2019-04-16T10:53:43.466Z,5.53
2019-04-16T10:56:30.284Z,5.60
2019-04-16T10:59:16.174Z,5.90
2019-04-16T11:01:49.267Z,5.20
2019-04-16T11:04:23.163Z,4.90
2019-04-16T11:06:51.473Z,5.60
2019-04-16T11:09:19.084Z,5.47
2019-04-16T11:11:46.807Z,5.70
2019-04-16T11:14:17.181Z,4.93
2019-04-16T11:16:48.777Z,4.60
2019-04-16T11:19:16.298Z,4.70
2019-04-16T11:21:44.326Z,4.50
2019-04-16T11:24:12.013Z,4.03
2019-04-16T11:26:40.203Z,3.60
2019-04-16T11:29:07.845Z,3.83
2019-04-16T11:31:35.693Z,3.33
2019-04-16T11:34:06.527Z,3.20
2019-04-16T11:36:35.316Z,3.37
2019-04-16T11:39:05.429Z,2.87
2019-04-16T11:41:33.482Z,2.80
2019-04-16T11:44:14.195Z,2.63
2019-04-16T11:46:30.688Z,2.67
2019-04-16T11:48:58.184Z,3.10
2019-04-16T11:51:25.706Z,2.93
2019-04-16T11:53:53.216Z,2.47
2019-04-16T11:56:22.527Z,2.30
2019-04-16T11:58:50.260Z,2.17
2019-04-16T12:01:40.446Z,2.33
2019-04-16T12:04:34.217Z,2.33
2019-04-16T12:07:10.029Z,2.20
2019-04-16T12:09:56.051Z,2.23
2019-04-16T12:12:27.880Z,2.37
2019-04-16T12:15:07.892Z,4.00
2019-04-16T12:17:53.806Z,2.60
2019-04-16T12:20:40.966Z,2.43
2019-04-16T12:23:30.791Z,2.70
2019-04-16T12:26:18.874Z,2.37
2019-04-16T12:29:02.090Z,2.63
2019-04-16T12:31:41.596Z,3.37
2019-04-16T12:34:34.709Z,2.60
2019-04-16T12:37:21.776Z,2.60
2019-04-16T12:40:07.189Z,2.83
2019-04-16T12:42:42.204Z,3.10
2019-04-16T12:45:29.648Z,2.70
2019-04-16T12:48:02.245Z,2.77
2019-04-16T12:50:47.584Z,2.80
2019-04-16T12:53:53.045Z,2.67
2019-04-16T12:56:40.101Z,2.60
2019-04-16T12:59:11.864Z,2.50
2019-04-16T13:01:58.079Z,3.10
2019-04-16T13:04:48.727Z,2.37
2019-04-16T13:07:22.646Z,2.57
2019-04-16T13:10:04.342Z,2.77
2019-04-16T13:12:50.131Z,2.80
2019-04-16T13:15:26.630Z,3.43
2019-04-16T13:18:24.435Z,2.60
2019-04-16T13:21:10.195Z,3.07
2019-04-16T13:23:41.226Z,2.60
2019-04-16T13:26:27.410Z,2.70
2019-04-16T13:28:56.154Z,2.87
2019-04-16T13:31:24.023Z,2.67
2019-04-16T13:33:51.481Z,2.80
2019-04-16T13:36:19.499Z,2.50
2019-04-16T13:38:52.650Z,2.73
2019-04-16T13:41:20.165Z,2.73
2019-04-16T13:43:51.782Z,3.17
2019-04-16T13:46:19.398Z,2.77
2019-04-16T13:49:05.276Z,3.77
2019-04-16T13:51:33.241Z,3.07
2019-04-16T13:54:20.551Z,2.07
2019-04-16T13:56:53.392Z,2.47
2019-04-16T13:59:46.395Z,2.43
2019-04-16T14:02:29.088Z,2.50
2019-04-16T14:05:03.050Z,3.87
2019-04-16T14:07:27.946Z,2.80
2019-04-16T14:09:55.278Z,2.30
2019-04-16T14:12:33.862Z,2.50
2019-04-16T14:14:52.512Z,2.40
2019-04-16T14:17:23.577Z,2.50
2019-04-16T14:19:50.942Z,2.40
2019-04-16T14:22:21.635Z,3.17
2019-04-16T14:24:47.760Z,2.53
2019-04-16T14:27:15.272Z,2.47
2019-04-16T14:29:42.758Z,2.43
2019-04-16T14:32:10.549Z,2.20
2019-04-16T14:34:44.548Z,2.20
2019-04-16T14:37:12.100Z,2.70
2019-04-16T14:39:43.249Z,2.80
2019-04-16T14:42:10.903Z,3.33
2019-04-16T14:44:46.986Z,2.37
2019-04-16T14:47:15.116Z,2.60
2019-04-16T14:49:42.613Z,3.10
2019-04-16T14:52:10.015Z,4.87
2019-04-16T14:54:46.114Z,4.40
2019-04-16T14:57:13.553Z,4.23
2019-04-16T14:59:51.711Z,4.73
2019-04-16T15:02:33.376Z,3.20
2019-04-16T15:05:25.556Z,2.83
2019-04-16T15:08:18.237Z,3.80
2019-04-16T15:11:10.163Z,2.73
2019-04-16T15:13:43.352Z,3.17
2019-04-16T15:16:29.186Z,3.20
2019-04-16T15:19:15.052Z,2.73
2019-04-16T15:22:00.666Z,2.90
2019-04-16T15:24:39.926Z,2.73
2019-04-16T15:27:31.522Z,2.60
2019-04-16T15:30:05.233Z,2.23
2019-04-16T15:33:06.761Z,2.50
2019-04-16T15:35:38.165Z,2.50
2019-04-16T15:38:29.611Z,2.93
2019-04-16T15:41:12.096Z,2.97
2019-04-16T15:43:57.824Z,3.07
2019-04-16T15:46:45.566Z,3.10
2019-04-16T15:49:19.431Z,4.33
2019-04-16T15:51:58.822Z,4.00
2019-04-16T15:54:45.910Z,4.33
2019-04-16T15:57:38.294Z,4.97
2019-04-16T16:00:17.619Z,4.93
2019-04-16T16:03:13.842Z,4.77
2019-04-16T16:05:45.235Z,4.17
2019-04-16T16:08:41.333Z,3.77
2019-04-16T16:11:17.186Z,3.13
2019-04-16T16:13:45.007Z,3.00
2019-04-16T16:16:17.658Z,3.13
2019-04-16T16:18:43.847Z,3.70
2019-04-16T16:21:11.485Z,2.97
2019-04-16T16:23:38.940Z,2.67
2019-04-16T16:26:06.672Z,2.70
2019-04-16T16:28:34.043Z,2.57
2019-04-16T16:31:01.560Z,2.60
2019-04-16T16:33:30.019Z,2.40
2019-04-16T16:35:59.834Z,2.47
2019-04-16T16:38:27.529Z,2.57
2019-04-16T16:40:55.180Z,2.03
2019-04-16T16:43:22.580Z,2.20
2019-04-16T16:46:21.674Z,2.23
2019-04-16T16:48:51.014Z,2.63
2019-04-16T16:51:18.652Z,2.57
2019-04-16T16:53:53.842Z,2.53
2019-04-16T16:56:26.846Z,2.53
2019-04-16T16:59:08.241Z,2.53
2019-04-16T17:01:54.527Z,2.70
2019-04-16T17:04:28.458Z,2.40
2019-04-16T17:06:56.030Z,2.20
2019-04-16T17:09:30.204Z,1.97
2019-04-16T17:11:59.039Z,1.87
2019-04-16T17:14:27.848Z,1.90
2019-04-16T17:16:55.566Z,2.07
2019-04-16T17:19:24.260Z,2.10
2019-04-16T17:21:51.793Z,2.20
2019-04-16T17:24:19.196Z,2.10
2019-04-16T17:26:49.927Z,2.17
2019-04-16T17:29:16.619Z,2.30
2019-04-16T17:31:44.171Z,2.47
2019-04-16T17:34:13.712Z,2.20
2019-04-16T17:36:41.325Z,2.37
2019-04-16T17:39:10.731Z,2.40
2019-04-16T17:41:48.114Z,2.57
2019-04-16T17:44:34.112Z,2.47
2019-04-16T17:47:31.977Z,2.67
2019-04-16T17:50:06.995Z,1.97
2019-04-16T17:52:40.672Z,1.83
2019-04-16T17:55:34.061Z,1.80
2019-04-16T17:58:19.896Z,1.63
2019-04-16T18:01:17.804Z,2.00
2019-04-16T18:04:03.114Z,1.57
2019-04-16T18:06:53.129Z,2.17
2019-04-16T18:09:29.243Z,1.90
2019-04-16T18:12:16.938Z,1.83
2019-04-16T18:15:08.859Z,1.70
2019-04-16T18:17:47.240Z,2.10
2019-04-16T18:20:27.484Z,2.17
2019-04-16T18:23:02.050Z,1.60
2019-04-16T18:26:01.394Z,2.60
2019-04-16T18:28:34.172Z,1.47
2019-04-16T18:31:24.295Z,1.80
2019-04-16T18:33:56.357Z,1.63
2019-04-16T18:36:33.859Z,1.80
2019-04-16T18:39:27.188Z,1.50
2019-04-16T18:42:07.781Z,1.53
2019-04-16T18:44:56.291Z,1.63
2019-04-16T18:48:03.015Z,3.40
2019-04-16T18:50:27.740Z,2.50
2019-04-16T18:52:53.571Z,2.00
2019-04-16T18:55:21.067Z,1.70
2019-04-16T18:57:48.836Z,1.60
2019-04-16T19:00:35.776Z,2.20
2019-04-16T19:03:03.798Z,2.40
2019-04-16T19:05:31.901Z,3.30
2019-04-16T19:08:00.849Z,5.37
2019-04-16T19:10:28.781Z,7.23
2019-04-16T19:12:56.571Z,10.30
2019-04-16T19:15:24.124Z,14.33
2019-04-16T19:17:52.495Z,11.03
2019-04-16T19:20:20.025Z,7.73
2019-04-16T19:22:49.775Z,3.67
2019-04-16T19:25:17.715Z,2.83
2019-04-16T19:27:48.762Z,1.90
2019-04-16T19:30:14.775Z,1.80
2019-04-16T19:32:42.257Z,1.30
2019-04-16T19:35:16.503Z,1.40
2019-04-16T19:37:40.159Z,1.30
2019-04-16T19:40:07.964Z,1.30
2019-04-16T19:42:35.516Z,1.47
2019-04-16T19:45:03.241Z,1.20
2019-04-16T19:47:35.169Z,1.43
2019-04-16T19:50:01.938Z,1.40
2019-04-16T19:52:29.590Z,1.33
2019-04-16T19:54:57.279Z,1.40
2019-04-16T19:57:25.491Z,1.70
2019-04-16T19:59:53.142Z,1.27
2019-04-16T20:02:20.804Z,1.50
2019-04-16T20:04:50.894Z,1.60
2019-04-16T20:07:18.595Z,2.07
2019-04-16T20:09:46.432Z,1.53
2019-04-16T20:12:13.790Z,2.13
2019-04-16T20:14:41.264Z,1.50
2019-04-16T20:17:08.880Z,1.50
2019-04-16T20:19:55.681Z,2.00
2019-04-16T20:22:23.321Z,1.40
2019-04-16T20:24:50.724Z,1.30
2019-04-16T20:27:19.709Z,1.60
2019-04-16T20:29:48.533Z,1.70
2019-04-16T20:32:16.002Z,1.70
2019-04-16T20:34:45.257Z,1.90
2019-04-16T20:37:12.989Z,1.60
2019-04-16T20:39:41.079Z,1.70
2019-04-16T20:42:08.407Z,1.60
2019-04-16T20:44:36.238Z,1.70
2019-04-16T20:47:07.988Z,1.93
2019-04-16T20:49:33.757Z,1.60
2019-04-16T20:52:02.341Z,1.90
2019-04-16T20:54:31.643Z,2.20
2019-04-16T20:56:59.226Z,2.10
2019-04-16T20:59:26.762Z,2.17
2019-04-16T21:01:54.221Z,1.83
2019-04-16T21:04:21.934Z,1.90
2019-04-16T21:06:49.647Z,2.20
2019-04-16T21:09:17.192Z,1.80
2019-04-16T21:11:44.656Z,2.03
2019-04-16T21:14:12.084Z,2.00
2019-04-16T21:16:39.550Z,2.03
2019-04-16T21:19:21.599Z,2.20
2019-04-16T21:21:38.188Z,1.90
2019-04-16T21:24:07.793Z,1.80
2019-04-16T21:26:35.273Z,1.83
2019-04-16T21:29:08.219Z,3.23
2019-04-16T21:31:42.290Z,1.87
2019-04-16T21:34:38.921Z,1.97
2019-04-16T21:37:17.263Z,2.13
2019-04-16T21:39:52.126Z,2.10
2019-04-16T21:42:22.633Z,1.80
2019-04-16T21:44:50.148Z,1.87
2019-04-16T21:47:23.131Z,2.10
2019-04-16T21:49:47.543Z,1.90
2019-04-16T21:52:15.339Z,2.23
2019-04-16T21:54:43.077Z,2.10
2019-04-16T21:57:13.527Z,2.10
2019-04-16T21:59:40.267Z,1.93
2019-04-16T22:02:15.252Z,2.50
2019-04-16T22:28:11.024Z,2.17
2019-04-16T22:30:35.149Z,3.03
2019-04-16T22:33:06.389Z,2.47
2019-04-16T22:35:32.236Z,2.47
2019-04-16T22:38:00.089Z,2.70
2019-04-16T22:40:47.481Z,2.37
2019-04-16T22:43:43.421Z,2.33
2019-04-16T22:46:33.612Z,2.47
2019-04-16T22:49:01.207Z,2.40
2019-04-16T22:51:28.761Z,2.10
2019-04-16T22:53:56.569Z,2.63
2019-04-16T22:56:33.287Z,2.50
2019-04-16T22:59:00.668Z,2.57
2019-04-16T23:01:30.481Z,2.97
2019-04-16T23:03:58.440Z,2.63
2019-04-16T23:06:25.922Z,2.70
2019-04-16T23:08:53.290Z,2.27
2019-04-16T23:11:23.660Z,2.70
2019-04-16T23:59:51.255Z,1.70
